sensor_id;sensor_type;location;lat;lon;timestamp;pressure;altitude;pressure_sealevel;temperature;humidity
34065;BME280;20339;49.754;20.158;2023-03-15T00:02:09;95243.99;;;8.43;75.41
34065;BME280;20339;49.754;20.158;2023-03-15T00:04:39;95244.64;;;8.43;75.33
34065;BME280;20339;49.754;20.158;2023-03-15T00:07:08;95248.75;;;8.44;75.36
34065;BME280;20339;49.754;20.158;2023-03-15T00:09:38;95246.75;;;8.43;75.27
34065;BME280;20339;49.754;20.158;2023-03-15T00:12:07;95253.49;;;8.44;75.46
34065;BME280;20339;49.754;20.158;2023-03-15T00:14:39;95258.88;;;8.44;75.72
34065;BME280;20339;49.754;20.158;2023-03-15T00:17:08;95268.30;;;8.42;75.98
34065;BME280;20339;49.754;20.158;2023-03-15T00:19:38;95273.06;;;8.42;75.95
34065;BME280;20339;49.754;20.158;2023-03-15T00:22:08;95278.73;;;8.45;76.00
34065;BME280;20339;49.754;20.158;2023-03-15T00:24:37;95279.11;;;8.44;76.04
34065;BME280;20339;49.754;20.158;2023-03-15T00:27:07;95285.69;;;8.40;76.17
34065;BME280;20339;49.754;20.158;2023-03-15T00:29:36;95284.93;;;8.38;76.18
34065;BME280;20339;49.754;20.158;2023-03-15T00:32:05;95295.11;;;8.41;76.83
34065;BME280;20339;49.754;20.158;2023-03-15T00:34:35;95317.02;;;8.36;78.44
34065;BME280;20339;49.754;20.158;2023-03-15T00:37:04;95333.29;;;8.19;79.61
34065;BME280;20339;49.754;20.158;2023-03-15T00:39:34;95348.06;;;8.03;80.84
34065;BME280;20339;49.754;20.158;2023-03-15T00:42:04;95373.95;;;7.71;82.04
34065;BME280;20339;49.754;20.158;2023-03-15T00:44:36;95368.44;;;7.35;82.95
34065;BME280;20339;49.754;20.158;2023-03-15T00:47:05;95382.35;;;7.10;83.49
34065;BME280;20339;49.754;20.158;2023-03-15T00:49:34;95393.92;;;6.92;83.99
34065;BME280;20339;49.754;20.158;2023-03-15T00:52:06;95407.52;;;6.79;84.07
34065;BME280;20339;49.754;20.158;2023-03-15T00:54:36;95413.02;;;6.66;83.73
34065;BME280;20339;49.754;20.158;2023-03-15T00:57:05;95426.98;;;6.52;84.12
34065;BME280;20339;49.754;20.158;2023-03-15T00:59:34;95440.14;;;6.32;84.39
34065;BME280;20339;49.754;20.158;2023-03-15T01:02:06;95461.04;;;6.05;83.94
34065;BME280;20339;49.754;20.158;2023-03-15T01:04:35;95455.48;;;5.81;83.79
34065;BME280;20339;49.754;20.158;2023-03-15T01:07:04;95456.38;;;5.60;83.86
34065;BME280;20339;49.754;20.158;2023-03-15T01:09:34;95466.96;;;5.44;84.62
34065;BME280;20339;49.754;20.158;2023-03-15T01:12:03;95476.81;;;5.29;85.59
34065;BME280;20339;49.754;20.158;2023-03-15T01:14:33;95473.41;;;5.18;86.31
34065;BME280;20339;49.754;20.158;2023-03-15T01:17:04;95488.04;;;5.07;87.22
34065;BME280;20339;49.754;20.158;2023-03-15T01:19:33;95493.19;;;4.96;88.27
34065;BME280;20339;49.754;20.158;2023-03-15T01:22:03;95491.45;;;4.84;88.92
34065;BME280;20339;49.754;20.158;2023-03-15T01:24:32;95475.61;;;4.77;89.06
34065;BME280;20339;49.754;20.158;2023-03-15T01:27:02;95496.50;;;4.65;89.61
34065;BME280;20339;49.754;20.158;2023-03-15T01:29:31;95499.80;;;4.54;89.80
34065;BME280;20339;49.754;20.158;2023-03-15T01:32:00;95498.48;;;4.46;89.76
34065;BME280;20339;49.754;20.158;2023-03-15T01:34:32;95506.86;;;4.35;89.78
34065;BME280;20339;49.754;20.158;2023-03-15T01:37:01;95504.41;;;4.21;89.85
34065;BME280;20339;49.754;20.158;2023-03-15T01:39:31;95515.45;;;4.06;90.01
34065;BME280;20339;49.754;20.158;2023-03-15T01:42:02;95528.98;;;3.95;90.05
34065;BME280;20339;49.754;20.158;2023-03-15T01:47:15;95556.00;;;3.62;90.30
34065;BME280;20339;49.754;20.158;2023-03-15T01:49:45;95553.19;;;3.48;90.60
34065;BME280;20339;49.754;20.158;2023-03-15T01:52:16;95572.17;;;3.31;91.05
34065;BME280;20339;49.754;20.158;2023-03-15T01:54:48;95575.92;;;3.14;91.53
34065;BME280;20339;49.754;20.158;2023-03-15T01:57:19;95584.50;;;2.98;92.12
34065;BME280;20339;49.754;20.158;2023-03-15T01:59:51;95602.30;;;2.86;92.73
34065;BME280;20339;49.754;20.158;2023-03-15T02:02:22;95605.08;;;2.76;93.22
34065;BME280;20339;49.754;20.158;2023-03-15T02:04:54;95591.17;;;2.70;93.36
34065;BME280;20339;49.754;20.158;2023-03-15T02:07:26;95599.08;;;2.64;93.55
34065;BME280;20339;49.754;20.158;2023-03-15T02:10:02;95602.52;;;2.61;93.59
34065;BME280;20339;49.754;20.158;2023-03-15T02:12:33;95604.45;;;2.58;93.42
34065;BME280;20339;49.754;20.158;2023-03-15T02:15:03;95614.25;;;2.54;93.53
34065;BME280;20339;49.754;20.158;2023-03-15T02:17:35;95624.17;;;2.53;93.52
34065;BME280;20339;49.754;20.158;2023-03-15T02:20:07;95627.93;;;2.53;93.53
34065;BME280;20339;49.754;20.158;2023-03-15T02:22:40;95635.03;;;2.50;93.41
34065;BME280;20339;49.754;20.158;2023-03-15T02:25:16;95637.73;;;2.45;93.34
34065;BME280;20339;49.754;20.158;2023-03-15T02:27:48;95638.25;;;2.44;92.97
34065;BME280;20339;49.754;20.158;2023-03-15T02:30:18;95646.27;;;2.48;92.79
34065;BME280;20339;49.754;20.158;2023-03-15T02:32:48;95656.54;;;2.50;92.40
34065;BME280;20339;49.754;20.158;2023-03-15T02:35:24;95666.25;;;2.48;92.03
34065;BME280;20339;49.754;20.158;2023-03-15T02:37:54;95675.05;;;2.41;91.43
34065;BME280;20339;49.754;20.158;2023-03-15T02:40:24;95675.05;;;2.36;91.07
34065;BME280;20339;49.754;20.158;2023-03-15T02:42:55;95686.64;;;2.32;90.66
34065;BME280;20339;49.754;20.158;2023-03-15T02:45:26;95686.98;;;2.28;90.48
34065;BME280;20339;49.754;20.158;2023-03-15T02:47:57;95689.55;;;2.24;90.24
34065;BME280;20339;49.754;20.158;2023-03-15T02:50:26;95695.42;;;2.21;90.10
34065;BME280;20339;49.754;20.158;2023-03-15T02:52:56;95698.13;;;2.19;89.85
34065;BME280;20339;49.754;20.158;2023-03-15T02:55:25;95704.09;;;2.19;89.71
34065;BME280;20339;49.754;20.158;2023-03-15T02:57:55;95704.14;;;2.20;89.68
34065;BME280;20339;49.754;20.158;2023-03-15T03:00:24;95714.16;;;2.17;89.34
34065;BME280;20339;49.754;20.158;2023-03-15T03:02:57;95723.10;;;2.17;89.22
34065;BME280;20339;49.754;20.158;2023-03-15T03:05:26;95727.41;;;2.19;88.98
34065;BME280;20339;49.754;20.158;2023-03-15T03:07:56;95738.86;;;2.19;88.86
34065;BME280;20339;49.754;20.158;2023-03-15T03:10:25;95734.52;;;2.19;88.65
34065;BME280;20339;49.754;20.158;2023-03-15T03:12:54;95737.48;;;2.16;88.53
34065;BME280;20339;49.754;20.158;2023-03-15T03:15:24;95740.70;;;2.11;88.21
34065;BME280;20339;49.754;20.158;2023-03-15T03:17:53;95734.58;;;2.11;88.35
34065;BME280;20339;49.754;20.158;2023-03-15T03:20:23;95737.85;;;2.08;88.25
34065;BME280;20339;49.754;20.158;2023-03-15T03:22:54;95741.58;;;2.10;88.15
34065;BME280;20339;49.754;20.158;2023-03-15T03:25:24;95738.52;;;2.07;88.05
34065;BME280;20339;49.754;20.158;2023-03-15T03:27:54;95744.88;;;2.04;87.93
34065;BME280;20339;49.754;20.158;2023-03-15T03:30:24;95757.63;;;2.03;88.02
34065;BME280;20339;49.754;20.158;2023-03-15T03:32:53;95762.65;;;2.04;87.86
34065;BME280;20339;49.754;20.158;2023-03-15T03:35:22;95760.02;;;2.02;87.73
34065;BME280;20339;49.754;20.158;2023-03-15T03:37:52;95758.33;;;1.97;87.91
34065;BME280;20339;49.754;20.158;2023-03-15T03:40:21;95769.05;;;1.92;88.11
34065;BME280;20339;49.754;20.158;2023-03-15T03:42:50;95766.28;;;1.87;88.28
34065;BME280;20339;49.754;20.158;2023-03-15T03:45:20;95768.35;;;1.82;88.42
34065;BME280;20339;49.754;20.158;2023-03-15T03:47:49;95777.08;;;1.77;88.70
34065;BME280;20339;49.754;20.158;2023-03-15T03:50:19;95770.44;;;1.72;88.77
34065;BME280;20339;49.754;20.158;2023-03-15T03:52:48;95778.62;;;1.70;88.57
34065;BME280;20339;49.754;20.158;2023-03-15T03:55:17;95781.80;;;1.70;88.61
34065;BME280;20339;49.754;20.158;2023-03-15T03:57:51;95772.87;;;1.68;88.71
34065;BME280;20339;49.754;20.158;2023-03-15T04:00:21;95768.89;;;1.67;88.54
34065;BME280;20339;49.754;20.158;2023-03-15T04:02:50;95772.80;;;1.67;88.75
34065;BME280;20339;49.754;20.158;2023-03-15T04:05:21;95771.13;;;1.65;88.62
34065;BME280;20339;49.754;20.158;2023-03-15T04:07:50;95784.70;;;1.65;88.50
34065;BME280;20339;49.754;20.158;2023-03-15T04:10:19;95792.06;;;1.68;88.27
34065;BME280;20339;49.754;20.158;2023-03-15T04:12:54;95796.52;;;1.73;88.05
34065;BME280;20339;49.754;20.158;2023-03-15T04:15:23;95791.80;;;1.76;87.92
34065;BME280;20339;49.754;20.158;2023-03-15T04:17:53;95793.52;;;1.74;88.04
34065;BME280;20339;49.754;20.158;2023-03-15T04:20:24;95795.21;;;1.73;87.93
34065;BME280;20339;49.754;20.158;2023-03-15T04:22:53;95802.29;;;1.70;87.92
34065;BME280;20339;49.754;20.158;2023-03-15T04:25:23;95804.92;;;1.72;88.06
34065;BME280;20339;49.754;20.158;2023-03-15T04:27:53;95811.40;;;1.76;87.94
34065;BME280;20339;49.754;20.158;2023-03-15T04:30:26;95812.38;;;1.74;87.93
34065;BME280;20339;49.754;20.158;2023-03-15T04:32:56;95807.35;;;1.70;87.85
34065;BME280;20339;49.754;20.158;2023-03-15T04:35:27;95808.52;;;1.65;88.09
34065;BME280;20339;49.754;20.158;2023-03-15T04:37:57;95809.90;;;1.61;88.05
34065;BME280;20339;49.754;20.158;2023-03-15T04:40:27;95811.51;;;1.60;88.20
34065;BME280;20339;49.754;20.158;2023-03-15T04:42:56;95814.77;;;1.62;88.08
34065;BME280;20339;49.754;20.158;2023-03-15T04:45:26;95823.42;;;1.62;88.07
34065;BME280;20339;49.754;20.158;2023-03-15T04:47:57;95825.59;;;1.63;88.09
34065;BME280;20339;49.754;20.158;2023-03-15T04:50:27;95828.98;;;1.63;88.01
34065;BME280;20339;49.754;20.158;2023-03-15T04:52:57;95836.13;;;1.62;87.80
34065;BME280;20339;49.754;20.158;2023-03-15T04:55:27;95836.56;;;1.58;87.67
34065;BME280;20339;49.754;20.158;2023-03-15T04:57:57;95839.12;;;1.55;87.70
34065;BME280;20339;49.754;20.158;2023-03-15T05:00:26;95845.88;;;1.53;87.59
34065;BME280;20339;49.754;20.158;2023-03-15T05:02:55;95852.63;;;1.57;87.49
34065;BME280;20339;49.754;20.158;2023-03-15T05:05:25;95852.08;;;1.58;87.62
34065;BME280;20339;49.754;20.158;2023-03-15T05:07:58;95851.04;;;1.56;87.40
34065;BME280;20339;49.754;20.158;2023-03-15T05:10:28;95857.77;;;1.52;87.11
34065;BME280;20339;49.754;20.158;2023-03-15T05:13:00;95861.48;;;1.53;86.98
34065;BME280;20339;49.754;20.158;2023-03-15T05:15:29;95866.09;;;1.54;86.80
34065;BME280;20339;49.754;20.158;2023-03-15T05:17:59;95870.70;;;1.54;86.52
34065;BME280;20339;49.754;20.158;2023-03-15T05:20:28;95880.10;;;1.56;86.55
34065;BME280;20339;49.754;20.158;2023-03-15T05:22:58;95884.16;;;1.59;86.35
34065;BME280;20339;49.754;20.158;2023-03-15T05:25:28;95881.21;;;1.58;86.23
34065;BME280;20339;49.754;20.158;2023-03-15T05:27:57;95890.19;;;1.50;86.20
34065;BME280;20339;49.754;20.158;2023-03-15T05:30:27;95887.42;;;1.47;86.08
34065;BME280;20339;49.754;20.158;2023-03-15T05:32:56;95883.19;;;1.46;85.94
34065;BME280;20339;49.754;20.158;2023-03-15T05:35:26;95888.80;;;1.41;86.00
34065;BME280;20339;49.754;20.158;2023-03-15T05:37:55;95891.85;;;1.40;85.90
34065;BME280;20339;49.754;20.158;2023-03-15T05:40:25;95905.45;;;1.44;85.89
34065;BME280;20339;49.754;20.158;2023-03-15T05:42:56;95909.16;;;1.47;85.71
34065;BME280;20339;49.754;20.158;2023-03-15T05:45:26;95916.74;;;1.52;85.65
34065;BME280;20339;49.754;20.158;2023-03-15T05:47:55;95921.77;;;1.59;85.68
34065;BME280;20339;49.754;20.158;2023-03-15T05:50:25;95922.52;;;1.66;85.63
34065;BME280;20339;49.754;20.158;2023-03-15T05:52:55;95927.02;;;1.68;85.24
34065;BME280;20339;49.754;20.158;2023-03-15T05:55:24;95928.75;;;1.68;85.21
34065;BME280;20339;49.754;20.158;2023-03-15T05:57:54;95936.40;;;1.62;85.03
34065;BME280;20339;49.754;20.158;2023-03-15T06:00:28;95942.67;;;1.53;85.13
34065;BME280;20339;49.754;20.158;2023-03-15T06:02:57;95953.52;;;1.53;85.25
34065;BME280;20339;49.754;20.158;2023-03-15T06:05:26;95963.63;;;1.55;85.38
34065;BME280;20339;49.754;20.158;2023-03-15T06:07:56;95965.34;;;1.52;85.00
34065;BME280;20339;49.754;20.158;2023-03-15T06:10:26;95971.44;;;1.48;85.16
34065;BME280;20339;49.754;20.158;2023-03-15T06:12:55;95970.86;;;1.49;84.99
34065;BME280;20339;49.754;20.158;2023-03-15T06:15:25;95971.67;;;1.54;85.15
34065;BME280;20339;49.754;20.158;2023-03-15T06:17:54;95974.23;;;1.54;84.72
34065;BME280;20339;49.754;20.158;2023-03-15T06:20:24;95971.77;;;1.53;84.73
34065;BME280;20339;49.754;20.158;2023-03-15T06:22:53;95975.60;;;1.60;84.80
34065;BME280;20339;49.754;20.158;2023-03-15T06:25:23;95979.88;;;1.66;84.63
34065;BME280;20339;49.754;20.158;2023-03-15T06:27:52;95980.05;;;1.69;84.61
34065;BME280;20339;49.754;20.158;2023-03-15T06:30:22;95984.69;;;1.66;83.88
34065;BME280;20339;49.754;20.158;2023-03-15T06:32:53;95983.55;;;1.67;84.09
34065;BME280;20339;49.754;20.158;2023-03-15T06:35:25;95986.52;;;1.67;84.00
34065;BME280;20339;49.754;20.158;2023-03-15T06:37:54;95998.27;;;1.62;83.61
34065;BME280;20339;49.754;20.158;2023-03-15T06:40:23;95989.10;;;1.55;83.42
34065;BME280;20339;49.754;20.158;2023-03-15T06:42:53;95996.18;;;1.54;84.09
34065;BME280;20339;49.754;20.158;2023-03-15T06:45:22;96008.27;;;1.57;84.13
34065;BME280;20339;49.754;20.158;2023-03-15T06:47:52;96008.39;;;1.62;83.63
34065;BME280;20339;49.754;20.158;2023-03-15T06:50:21;96015.21;;;1.61;83.26
34065;BME280;20339;49.754;20.158;2023-03-15T06:52:50;96024.11;;;1.62;83.55
34065;BME280;20339;49.754;20.158;2023-03-15T06:55:20;96024.36;;;1.63;83.58
34065;BME280;20339;49.754;20.158;2023-03-15T06:57:49;96025.45;;;1.70;83.86
34065;BME280;20339;49.754;20.158;2023-03-15T07:00:19;96029.60;;;1.73;83.66
34065;BME280;20339;49.754;20.158;2023-03-15T07:02:49;96030.23;;;1.74;83.71
34065;BME280;20339;49.754;20.158;2023-03-15T07:05:19;96031.49;;;1.69;83.60
34065;BME280;20339;49.754;20.158;2023-03-15T07:07:49;96043.61;;;1.68;83.74
34065;BME280;20339;49.754;20.158;2023-03-15T07:10:18;96043.21;;;1.75;83.49
34065;BME280;20339;49.754;20.158;2023-03-15T07:12:48;96041.81;;;1.80;83.61
34065;BME280;20339;49.754;20.158;2023-03-15T07:15:17;96041.44;;;1.75;83.36
34065;BME280;20339;49.754;20.158;2023-03-15T07:17:47;96044.29;;;1.74;83.38
34065;BME280;20339;49.754;20.158;2023-03-15T07:20:16;96051.69;;;1.72;83.78
34065;BME280;20339;49.754;20.158;2023-03-15T07:22:46;96056.96;;;1.67;83.56
34065;BME280;20339;49.754;20.158;2023-03-15T07:25:16;96063.24;;;1.64;83.35
34065;BME280;20339;49.754;20.158;2023-03-15T07:27:50;96055.50;;;1.67;83.39
34065;BME280;20339;49.754;20.158;2023-03-15T07:30:20;96055.47;;;1.70;83.34
34065;BME280;20339;49.754;20.158;2023-03-15T07:32:49;96051.90;;;1.72;83.38
34065;BME280;20339;49.754;20.158;2023-03-15T07:35:19;96056.32;;;1.63;83.16
34065;BME280;20339;49.754;20.158;2023-03-15T07:37:50;96061.16;;;1.62;83.30
34065;BME280;20339;49.754;20.158;2023-03-15T07:40:19;96059.17;;;1.61;83.18
34065;BME280;20339;49.754;20.158;2023-03-15T07:42:49;96064.60;;;1.68;83.52
34065;BME280;20339;49.754;20.158;2023-03-15T07:45:18;96067.58;;;1.79;83.57
34065;BME280;20339;49.754;20.158;2023-03-15T07:47:48;96072.20;;;1.90;83.56
34065;BME280;20339;49.754;20.158;2023-03-15T07:50:17;96070.36;;;1.96;83.09
34065;BME280;20339;49.754;20.158;2023-03-15T07:52:47;96075.75;;;1.98;83.08
34065;BME280;20339;49.754;20.158;2023-03-15T07:55:16;96078.98;;;2.08;83.40
34065;BME280;20339;49.754;20.158;2023-03-15T07:57:45;96082.02;;;2.14;82.68
34065;BME280;20339;49.754;20.158;2023-03-15T08:00:16;96083.36;;;2.08;82.32
34065;BME280;20339;49.754;20.158;2023-03-15T08:02:45;96080.23;;;2.04;82.07
34065;BME280;20339;49.754;20.158;2023-03-15T08:05:15;96087.33;;;2.08;81.69
34065;BME280;20339;49.754;20.158;2023-03-15T08:07:46;96091.28;;;2.06;81.15
34065;BME280;20339;49.754;20.158;2023-03-15T08:12:44;96093.54;;;2.09;80.59
34065;BME280;20339;49.754;20.158;2023-03-15T08:15:14;96096.77;;;2.10;80.55
34065;BME280;20339;49.754;20.158;2023-03-15T08:17:59;96092.08;;;2.06;80.16
34065;BME280;20339;49.754;20.158;2023-03-15T08:20:30;96088.35;;;2.01;79.45
34065;BME280;20339;49.754;20.158;2023-03-15T08:23:00;96096.69;;;2.07;79.83
34065;BME280;20339;49.754;20.158;2023-03-15T08:25:30;96095.06;;;2.23;80.10
34065;BME280;20339;49.754;20.158;2023-03-15T08:28:00;96093.89;;;2.35;79.79
34065;BME280;20339;49.754;20.158;2023-03-15T08:30:29;96093.67;;;2.41;79.34
34065;BME280;20339;49.754;20.158;2023-03-15T08:32:59;96095.77;;;2.49;79.54
34065;BME280;20339;49.754;20.158;2023-03-15T08:35:28;96097.02;;;2.60;79.30
34065;BME280;20339;49.754;20.158;2023-03-15T08:37:59;96098.52;;;2.62;78.70
34065;BME280;20339;49.754;20.158;2023-03-15T08:40:31;96102.20;;;2.55;77.93
34065;BME280;20339;49.754;20.158;2023-03-15T08:43:03;96104.45;;;2.49;77.86
34065;BME280;20339;49.754;20.158;2023-03-15T08:45:32;96114.20;;;2.46;77.57
34065;BME280;20339;49.754;20.158;2023-03-15T08:48:02;96119.00;;;2.53;77.51
34065;BME280;20339;49.754;20.158;2023-03-15T08:50:32;96114.69;;;2.68;77.72
34065;BME280;20339;49.754;20.158;2023-03-15T08:53:01;96118.60;;;2.90;77.77
34065;BME280;20339;49.754;20.158;2023-03-15T08:55:31;96123.12;;;2.99;76.63
34065;BME280;20339;49.754;20.158;2023-03-15T08:58:00;96116.23;;;2.97;75.34
34065;BME280;20339;49.754;20.158;2023-03-15T09:00:30;96127.78;;;2.87;75.78
34065;BME280;20339;49.754;20.158;2023-03-15T09:03:00;96124.59;;;2.95;75.94
34065;BME280;20339;49.754;20.158;2023-03-15T09:05:29;96128.45;;;3.02;75.48
34065;BME280;20339;49.754;20.158;2023-03-15T09:07:59;96136.71;;;3.06;75.95
34065;BME280;20339;49.754;20.158;2023-03-15T09:10:28;96142.48;;;3.18;75.97
34065;BME280;20339;49.754;20.158;2023-03-15T09:12:58;96141.21;;;3.13;74.42
34065;BME280;20339;49.754;20.158;2023-03-15T09:15:27;96145.98;;;3.00;74.45
34065;BME280;20339;49.754;20.158;2023-03-15T09:17:57;96143.45;;;2.96;74.03
34065;BME280;20339;49.754;20.158;2023-03-15T09:20:26;96145.75;;;2.88;73.50
34065;BME280;20339;49.754;20.158;2023-03-15T09:22:56;96145.58;;;2.83;73.81
34065;BME280;20339;49.754;20.158;2023-03-15T09:25:26;96150.54;;;2.80;73.41
34065;BME280;20339;49.754;20.158;2023-03-15T09:27:55;96148.71;;;2.83;73.43
34065;BME280;20339;49.754;20.158;2023-03-15T09:30:25;96150.52;;;2.88;73.73
34065;BME280;20339;49.754;20.158;2023-03-15T09:32:56;96147.85;;;2.96;73.19
34065;BME280;20339;49.754;20.158;2023-03-15T09:35:25;96155.68;;;3.06;73.34
34065;BME280;20339;49.754;20.158;2023-03-15T09:37:56;96153.20;;;3.12;73.07
34065;BME280;20339;49.754;20.158;2023-03-15T09:40:27;96158.80;;;3.24;73.69
34065;BME280;20339;49.754;20.158;2023-03-15T09:43:02;96163.26;;;3.36;72.38
34065;BME280;20339;49.754;20.158;2023-03-15T09:45:38;96159.34;;;3.35;72.47
34065;BME280;20339;49.754;20.158;2023-03-15T09:48:10;96169.38;;;3.44;72.70
34065;BME280;20339;49.754;20.158;2023-03-15T09:50:42;96169.52;;;3.51;71.85
34065;BME280;20339;49.754;20.158;2023-03-15T09:53:14;96173.84;;;3.40;70.68
34065;BME280;20339;49.754;20.158;2023-03-15T09:55:46;96174.05;;;3.27;71.08
34065;BME280;20339;49.754;20.158;2023-03-15T09:58:18;96176.28;;;3.31;70.85
34065;BME280;20339;49.754;20.158;2023-03-15T10:00:50;96179.61;;;3.37;71.15
34065;BME280;20339;49.754;20.158;2023-03-15T10:03:22;96176.14;;;3.49;70.83
34065;BME280;20339;49.754;20.158;2023-03-15T10:05:55;96168.59;;;3.40;69.77
34065;BME280;20339;49.754;20.158;2023-03-15T10:08:26;96173.33;;;3.20;68.63
34065;BME280;20339;49.754;20.158;2023-03-15T10:10:59;96180.52;;;3.15;69.58
34065;BME280;20339;49.754;20.158;2023-03-15T10:13:39;96183.85;;;3.32;69.77
34065;BME280;20339;49.754;20.158;2023-03-15T10:16:17;96183.48;;;3.49;69.70
34065;BME280;20339;49.754;20.158;2023-03-15T10:18:56;96191.28;;;3.52;68.52
34065;BME280;20339;49.754;20.158;2023-03-15T10:21:32;96194.67;;;3.51;69.33
34065;BME280;20339;49.754;20.158;2023-03-15T10:24:06;96196.92;;;3.54;68.38
34065;BME280;20339;49.754;20.158;2023-03-15T10:26:40;96194.70;;;3.36;67.33
34065;BME280;20339;49.754;20.158;2023-03-15T10:29:12;96187.75;;;3.22;67.08
34065;BME280;20339;49.754;20.158;2023-03-15T10:31:43;96195.88;;;3.04;66.39
34065;BME280;20339;49.754;20.158;2023-03-15T10:34:14;96209.29;;;2.93;66.80
34065;BME280;20339;49.754;20.158;2023-03-15T10:36:45;96208.84;;;3.06;68.07
34065;BME280;20339;49.754;20.158;2023-03-15T10:39:16;96210.40;;;3.36;68.25
34065;BME280;20339;49.754;20.158;2023-03-15T10:41:46;96209.58;;;3.56;67.70
34065;BME280;20339;49.754;20.158;2023-03-15T10:44:17;96208.36;;;3.59;66.09
34065;BME280;20339;49.754;20.158;2023-03-15T10:47:00;96211.73;;;3.43;65.36
34065;BME280;20339;49.754;20.158;2023-03-15T10:49:34;96201.73;;;3.42;65.93
34065;BME280;20339;49.754;20.158;2023-03-15T10:52:04;96214.70;;;3.39;65.06
34065;BME280;20339;49.754;20.158;2023-03-15T10:54:34;96222.32;;;3.53;66.37
34065;BME280;20339;49.754;20.158;2023-03-15T10:57:04;96226.05;;;3.79;65.78
34065;BME280;20339;49.754;20.158;2023-03-15T10:59:34;96219.77;;;4.02;65.83
34065;BME280;20339;49.754;20.158;2023-03-15T11:02:16;96220.16;;;4.25;65.67
34065;BME280;20339;49.754;20.158;2023-03-15T11:04:48;96221.30;;;4.40;65.18
34065;BME280;20339;49.754;20.158;2023-03-15T11:07:18;96216.95;;;4.47;64.60
34065;BME280;20339;49.754;20.158;2023-03-15T11:09:52;96214.48;;;4.25;63.02
34065;BME280;20339;49.754;20.158;2023-03-15T11:12:22;96210.84;;;4.11;64.03
34065;BME280;20339;49.754;20.158;2023-03-15T11:14:56;96211.15;;;4.10;63.99
34065;BME280;20339;49.754;20.158;2023-03-15T11:17:27;96214.65;;;4.05;63.76
34065;BME280;20339;49.754;20.158;2023-03-15T11:19:58;96205.05;;;3.94;63.30
34065;BME280;20339;49.754;20.158;2023-03-15T11:22:37;96199.30;;;3.86;63.80
34065;BME280;20339;49.754;20.158;2023-03-15T11:25:11;96213.80;;;3.84;63.39
34065;BME280;20339;49.754;20.158;2023-03-15T11:27:41;96214.28;;;3.86;63.06
34065;BME280;20339;49.754;20.158;2023-03-15T11:30:14;96222.41;;;4.00;64.06
34065;BME280;20339;49.754;20.158;2023-03-15T11:32:44;96222.63;;;4.20;63.75
34065;BME280;20339;49.754;20.158;2023-03-15T11:35:16;96220.34;;;4.26;63.47
34065;BME280;20339;49.754;20.158;2023-03-15T11:37:48;96221.28;;;4.22;63.31
34065;BME280;20339;49.754;20.158;2023-03-15T11:40:21;96224.38;;;4.08;62.59
34065;BME280;20339;49.754;20.158;2023-03-15T11:42:53;96227.36;;;4.11;63.47
34065;BME280;20339;49.754;20.158;2023-03-15T11:45:26;96227.80;;;4.19;62.91
34065;BME280;20339;49.754;20.158;2023-03-15T11:47:58;96231.30;;;4.07;62.01
34065;BME280;20339;49.754;20.158;2023-03-15T11:50:31;96228.37;;;3.98;61.79
34065;BME280;20339;49.754;20.158;2023-03-15T11:53:01;96225.63;;;3.71;60.95
34065;BME280;20339;49.754;20.158;2023-03-15T11:55:33;96236.13;;;3.53;61.80
34065;BME280;20339;49.754;20.158;2023-03-15T12:00:51;96240.32;;;3.63;62.01
34065;BME280;20339;49.754;20.158;2023-03-15T12:08:53;96238.48;;;3.67;61.10
34065;BME280;20339;49.754;20.158;2023-03-15T12:11:39;96233.39;;;3.62;61.20
34065;BME280;20339;49.754;20.158;2023-03-15T12:14:21;96231.62;;;3.63;61.05
34065;BME280;20339;49.754;20.158;2023-03-15T12:16:53;96225.88;;;3.68;60.57
34065;BME280;20339;49.754;20.158;2023-03-15T12:19:25;96219.71;;;3.63;59.85
34065;BME280;20339;49.754;20.158;2023-03-15T12:21:56;96236.36;;;3.60;61.17
34065;BME280;20339;49.754;20.158;2023-03-15T12:24:27;96232.81;;;3.79;61.20
34065;BME280;20339;49.754;20.158;2023-03-15T12:26:59;96226.30;;;3.74;59.91
34065;BME280;20339;49.754;20.158;2023-03-15T12:29:29;96230.73;;;3.59;59.86
34065;BME280;20339;49.754;20.158;2023-03-15T12:32:06;96230.98;;;3.63;59.94
34065;BME280;20339;49.754;20.158;2023-03-15T12:34:41;96229.38;;;3.72;59.24
34065;BME280;20339;49.754;20.158;2023-03-15T12:37:16;96236.34;;;3.71;59.63
34065;BME280;20339;49.754;20.158;2023-03-15T12:39:48;96232.49;;;3.96;60.10
34065;BME280;20339;49.754;20.158;2023-03-15T12:50:37;96242.59;;;4.04;58.29
34065;BME280;20339;49.754;20.158;2023-03-15T12:53:11;96242.46;;;4.06;58.36
34065;BME280;20339;49.754;20.158;2023-03-15T12:55:44;96240.85;;;4.22;58.88
34065;BME280;20339;49.754;20.158;2023-03-15T12:58:14;96241.61;;;4.45;59.29
34065;BME280;20339;49.754;20.158;2023-03-15T13:00:45;96241.45;;;4.56;58.14
34065;BME280;20339;49.754;20.158;2023-03-15T13:03:17;96239.16;;;4.47;58.00
34065;BME280;20339;49.754;20.158;2023-03-15T13:05:51;96228.26;;;4.43;57.80
34065;BME280;20339;49.754;20.158;2023-03-15T13:08:26;96240.33;;;4.32;56.96
34065;BME280;20339;49.754;20.158;2023-03-15T13:11:04;96238.83;;;4.30;57.03
34065;BME280;20339;49.754;20.158;2023-03-15T13:13:47;96239.16;;;4.31;57.91
34065;BME280;20339;49.754;20.158;2023-03-15T13:16:22;96238.70;;;4.54;58.59
34065;BME280;20339;49.754;20.158;2023-03-15T13:18:56;96241.63;;;4.70;57.99
34065;BME280;20339;49.754;20.158;2023-03-15T13:21:30;96250.81;;;4.76;57.78
34065;BME280;20339;49.754;20.158;2023-03-15T13:24:02;96251.48;;;4.78;57.46
34065;BME280;20339;49.754;20.158;2023-03-15T13:26:37;96251.89;;;4.85;58.05
34065;BME280;20339;49.754;20.158;2023-03-15T13:29:10;96252.70;;;4.94;58.17
34065;BME280;20339;49.754;20.158;2023-03-15T13:31:41;96256.81;;;5.02;58.06
34065;BME280;20339;49.754;20.158;2023-03-15T13:34:12;96254.45;;;5.08;57.96
34065;BME280;20339;49.754;20.158;2023-03-15T13:36:42;96250.88;;;5.08;58.17
34065;BME280;20339;49.754;20.158;2023-03-15T13:39:17;96252.44;;;5.00;57.49
34065;BME280;20339;49.754;20.158;2023-03-15T13:41:47;96268.11;;;4.94;57.53